createdAt,value
2023-01-10T00:01:39.166Z,-0.09
2023-01-10T00:04:06.107Z,-0.09
2023-01-10T00:06:33.278Z,-0.08
2023-01-10T00:09:00.722Z,-0.06
2023-01-10T00:11:46.605Z,-0.08
2023-01-10T00:14:13.751Z,-0.12
2023-01-10T00:16:42.730Z,-0.18
2023-01-10T00:19:10.861Z,-0.21
2023-01-10T00:21:38.047Z,-0.21
2023-01-10T00:24:35.329Z,-0.23
2023-01-10T00:27:03.396Z,-0.26
2023-01-10T00:29:34.261Z,-0.27
2023-01-10T00:32:01.296Z,-0.28
2023-01-10T00:34:28.435Z,-0.29
2023-01-10T00:36:55.480Z,-0.28
2023-01-10T00:39:25.907Z,-0.27
2023-01-10T00:42:13.946Z,-0.27
2023-01-10T00:44:41.005Z,-0.27
2023-01-10T00:47:07.838Z,-0.28
2023-01-10T00:49:34.781Z,-0.31
2023-01-10T00:52:01.931Z,-0.33
2023-01-10T00:54:28.772Z,-0.35
2023-01-10T00:56:55.821Z,-0.35
2023-01-10T00:59:23.075Z,-0.34
2023-01-10T01:01:52.697Z,-0.34
2023-01-10T01:04:19.729Z,-0.33
2023-01-10T01:06:50.973Z,-0.34
2023-01-10T01:09:18.224Z,-0.35
2023-01-10T01:11:45.073Z,-0.37
2023-01-10T01:14:13.175Z,-0.38
2023-01-10T01:16:40.087Z,-0.38
2023-01-10T01:19:07.134Z,-0.39
2023-01-10T01:21:34.080Z,-0.39
2023-01-10T01:24:01.032Z,-0.41
2023-01-10T01:26:27.980Z,-0.43
2023-01-10T01:28:55.223Z,-0.44
2023-01-10T01:31:22.139Z,-0.46
2023-01-10T01:33:49.321Z,-0.49
2023-01-10T01:36:16.367Z,-0.51
2023-01-10T01:38:43.323Z,-0.51
2023-01-10T01:41:29.003Z,-0.52
2023-01-10T01:44:07.205Z,-0.52
2023-01-10T01:46:35.875Z,-0.53
2023-01-10T01:49:04.788Z,-0.53
2023-01-10T01:51:31.732Z,-0.53
2023-01-10T01:54:07.744Z,-0.53
2023-01-10T01:56:45.648Z,-0.49
2023-01-10T01:59:18.010Z,-0.50
2023-01-10T02:01:47.019Z,-0.52
2023-01-10T02:04:18.127Z,-0.53
2023-01-10T02:06:46.250Z,-0.56
2023-01-10T02:09:36.971Z,-0.59
2023-01-10T02:12:04.126Z,-0.59
2023-01-10T02:14:31.476Z,-0.61
2023-01-10T02:16:58.426Z,-0.62
2023-01-10T02:19:39.190Z,-0.65
2023-01-10T02:22:43.759Z,-0.69
2023-01-10T02:25:41.492Z,-0.71
2023-01-10T02:28:19.666Z,-0.75
2023-01-10T02:31:20.788Z,-0.69
2023-01-10T02:33:53.828Z,-0.66
2023-01-10T02:36:33.061Z,-0.65
2023-01-10T02:39:18.250Z,-0.65
2023-01-10T02:41:48.613Z,-0.67
2023-01-10T04:01:16.741Z,-0.53
2023-01-10T04:03:43.852Z,-0.31
2023-01-10T04:06:28.697Z,-0.39
2023-01-10T04:08:55.433Z,-0.47
2023-01-10T04:11:22.376Z,-0.53
2023-01-10T04:13:50.961Z,-0.58
2023-01-10T04:16:17.894Z,-0.65
2023-01-10T04:18:44.955Z,-0.71
2023-01-10T04:21:12.102Z,-0.78
2023-01-10T04:23:38.882Z,-0.85
2023-01-10T04:26:07.108Z,-0.89
2023-01-10T04:28:34.334Z,-0.94
2023-01-10T04:31:01.624Z,-0.91
2023-01-10T04:33:29.185Z,-0.95
2023-01-10T04:35:56.341Z,-1.05
2023-01-10T04:38:23.180Z,-1.11
2023-01-10T04:40:54.230Z,-1.17
2023-01-10T04:43:21.677Z,-1.22
2023-01-10T04:45:48.569Z,-1.25
2023-01-10T04:48:15.702Z,-1.28
2023-01-10T04:50:42.638Z,-1.31
2023-01-10T04:53:09.698Z,-1.35
2023-01-10T04:55:36.513Z,-1.38
2023-01-10T04:58:04.127Z,-1.41
2023-01-10T05:15:58.442Z,-1.37
2023-01-10T05:18:26.211Z,-1.18
2023-01-10T05:20:53.200Z,-1.29
2023-01-10T05:23:20.207Z,-1.43
2023-01-10T05:25:47.062Z,-1.56
2023-01-10T05:28:13.989Z,-1.66
2023-01-10T05:30:40.934Z,-1.74
2023-01-10T05:33:07.767Z,-1.85
2023-01-10T05:35:34.926Z,-1.95
2023-01-10T05:38:01.853Z,-2.05
2023-01-10T05:40:28.927Z,-2.13
2023-01-10T05:42:55.866Z,-2.17
2023-01-10T05:45:22.776Z,-2.22
2023-01-10T05:47:49.581Z,-2.29
2023-01-10T05:50:18.865Z,-2.26
2023-01-10T05:52:46.104Z,-2.20
2023-01-10T05:55:12.951Z,-2.13
2023-01-10T05:57:39.794Z,-2.06
2023-01-10T06:00:07.695Z,-1.99
2023-01-10T06:02:38.484Z,-1.96
2023-01-10T06:05:06.043Z,-1.96
2023-01-10T06:07:33.004Z,-1.94
2023-01-10T06:09:59.843Z,-2.11
2023-01-10T06:12:26.793Z,-2.21
2023-01-10T06:14:53.737Z,-2.28
2023-01-10T06:17:20.683Z,-2.30
2023-01-10T06:19:47.562Z,-2.36
2023-01-10T06:22:14.677Z,-2.41
2023-01-10T06:24:42.549Z,-2.48
2023-01-10T06:27:09.904Z,-2.54
2023-01-10T06:29:36.851Z,-2.58
2023-01-10T06:32:03.670Z,-2.65
2023-01-10T06:34:30.631Z,-2.70
2023-01-10T06:36:58.700Z,-2.55
2023-01-10T06:39:25.542Z,-2.64
2023-01-10T06:41:52.486Z,-2.78
2023-01-10T06:44:19.431Z,-2.82
2023-01-10T06:46:46.221Z,-2.83
2023-01-10T06:49:13.019Z,-2.83
2023-01-10T06:51:39.962Z,-2.85
2023-01-10T06:54:06.860Z,-2.88
2023-01-10T06:56:33.702Z,-2.87
2023-01-10T06:59:00.801Z,-2.85
2023-01-10T07:01:28.430Z,-2.82
2023-01-10T07:03:55.511Z,-2.79
2023-01-10T07:06:22.654Z,-2.80
2023-01-10T07:08:49.600Z,-2.86
2023-01-10T07:11:17.882Z,-2.87
2023-01-10T07:13:44.821Z,-2.87
2023-01-10T07:16:13.950Z,-2.87
2023-01-10T07:18:41.601Z,-2.86
2023-01-10T07:21:09.550Z,-2.88
2023-01-10T07:23:36.463Z,-2.88
2023-01-10T07:26:05.040Z,-2.88
2023-01-10T07:28:34.494Z,-2.88
2023-01-10T07:31:02.287Z,-2.90
2023-01-10T07:33:29.714Z,-2.91
2023-01-10T07:35:56.850Z,-2.89
2023-01-10T07:38:23.796Z,-2.86
2023-01-10T07:40:50.605Z,-2.83
2023-01-10T07:44:42.256Z,-2.84
2023-01-10T07:47:09.142Z,-2.73
2023-01-10T07:49:36.150Z,-2.68
2023-01-10T07:52:03.088Z,-2.64
2023-01-10T07:54:30.037Z,-2.61
2023-01-10T07:56:56.985Z,-2.41
2023-01-10T07:59:23.899Z,-2.23
2023-01-10T08:01:50.875Z,-2.16
2023-01-10T08:04:17.822Z,-2.10
2023-01-10T08:06:44.864Z,-2.06
2023-01-10T08:09:11.808Z,-2.03
2023-01-10T08:11:40.750Z,-2.02
2023-01-10T08:14:08.730Z,-2.00
2023-01-10T08:16:35.720Z,-1.97
2023-01-10T08:19:02.563Z,-1.95
2023-01-10T08:21:29.419Z,-1.96
2023-01-10T08:23:56.350Z,-1.97
2023-01-10T08:26:23.293Z,-1.94
2023-01-10T08:28:50.545Z,-1.93
2023-01-10T08:31:17.619Z,-1.91
2023-01-10T08:33:44.543Z,-1.83
2023-01-10T08:36:16.401Z,-1.73
2023-01-10T08:38:43.352Z,-1.62
2023-01-10T08:41:10.292Z,-1.54
2023-01-10T08:43:37.235Z,-1.44
2023-01-10T08:46:04.111Z,-1.38
2023-01-10T08:48:33.541Z,-1.32
2023-01-10T08:51:05.880Z,-1.27
2023-01-10T08:53:32.799Z,-1.23
2023-01-10T08:55:59.745Z,-1.20
2023-01-10T08:58:26.623Z,-1.19
2023-01-10T09:00:56.030Z,-1.14
2023-01-10T09:03:23.656Z,-1.07
2023-01-10T09:05:50.703Z,-1.00
2023-01-10T09:08:17.540Z,-0.96
2023-01-10T09:10:48.282Z,-0.93
2023-01-10T09:13:15.946Z,-0.92
2023-01-10T09:15:43.591Z,-0.90
2023-01-10T09:18:11.573Z,-0.91
2023-01-10T09:20:39.648Z,-0.90
2023-01-10T09:23:08.631Z,-0.86
2023-01-10T09:25:35.592Z,-0.79
2023-01-10T09:28:03.447Z,-0.73
2023-01-10T09:30:30.597Z,-0.73
2023-01-10T09:32:57.757Z,-0.75
2023-01-10T09:35:25.221Z,-0.76
2023-01-10T09:37:58.569Z,-0.74
2023-01-10T09:40:45.683Z,-0.72
2023-01-10T09:43:43.185Z,-0.69
2023-01-10T09:46:13.076Z,-0.67
2023-01-10T09:49:05.124Z,-0.66
2023-01-10T09:51:39.550Z,-0.63
2023-01-10T09:54:12.210Z,-0.57
2023-01-10T09:56:40.936Z,-0.49
2023-01-10T09:59:19.940Z,-0.44
2023-01-10T10:01:48.215Z,-0.42
2023-01-10T10:04:28.647Z,-0.47
2023-01-10T10:06:55.644Z,-0.54
2023-01-10T10:09:28.624Z,-0.60
2023-01-10T10:12:17.272Z,-0.66
2023-01-10T10:15:10.018Z,-0.75
2023-01-10T10:18:04.100Z,-0.80
2023-01-10T10:20:44.746Z,-0.81
2023-01-10T10:23:41.355Z,-0.81
2023-01-10T10:26:32.008Z,-0.78
2023-01-10T10:29:20.361Z,-0.78
2023-01-10T10:31:53.400Z,-0.78
2023-01-10T10:34:36.586Z,-0.76
2023-01-10T10:37:13.144Z,-0.74
2023-01-10T10:39:44.895Z,-0.75
2023-01-10T10:42:14.006Z,-0.70
2023-01-10T10:44:55.593Z,-0.80
2023-01-10T10:47:23.555Z,-1.00
2023-01-10T10:50:02.032Z,-1.00
2023-01-10T10:52:34.540Z,-1.00
2023-01-10T10:55:07.222Z,-1.01
2023-01-10T10:57:35.193Z,-1.00
2023-01-10T11:00:02.864Z,-0.96
2023-01-10T11:02:31.444Z,-0.90
2023-01-10T11:05:01.942Z,-0.86
2023-01-10T11:07:32.456Z,-0.82
2023-01-10T11:09:59.340Z,-0.77
2023-01-10T11:12:30.894Z,-0.70
2023-01-10T11:14:59.171Z,-0.65
2023-01-10T11:17:28.005Z,-0.61
2023-01-10T11:20:05.363Z,-0.56
2023-01-10T11:22:43.970Z,-0.54
2023-01-10T11:25:18.387Z,-0.53
2023-01-10T11:27:51.670Z,-0.53
2023-01-10T11:30:27.228Z,-0.53
2023-01-10T11:32:58.679Z,-0.55
2023-01-10T11:35:27.575Z,-0.56
2023-01-10T14:09:44.540Z,-0.90
2023-01-10T14:12:29.805Z,-0.57
2023-01-10T14:15:02.067Z,-0.58
2023-01-10T14:17:36.078Z,-0.60
2023-01-10T14:20:14.377Z,-0.63
2023-01-10T14:22:42.060Z,-0.67
2023-01-10T14:41:38.944Z,-0.42
2023-01-10T14:44:13.826Z,-0.14
2023-01-10T14:46:55.114Z,-0.21
2023-01-10T14:49:35.321Z,-0.29
2023-01-10T14:52:13.463Z,-0.38
2023-01-10T14:54:40.765Z,-0.46
2023-01-10T14:57:19.097Z,-0.51
2023-01-10T14:59:46.035Z,-0.58
2023-01-10T15:02:24.572Z,-0.63
2023-01-10T15:05:27.996Z,-0.66
2023-01-10T15:07:55.448Z,-0.70
2023-01-10T15:10:31.184Z,-0.72
2023-01-10T15:13:00.756Z,-0.75
2023-01-10T15:15:36.413Z,-0.77
2023-01-10T15:18:21.783Z,-0.79
2023-01-10T15:20:48.730Z,-0.79
2023-01-10T15:23:15.795Z,-0.81
2023-01-10T15:25:43.642Z,-0.82
2023-01-10T15:28:14.794Z,-0.82
2023-01-10T15:30:41.834Z,-0.81
2023-01-10T15:33:13.387Z,-0.81
2023-01-10T15:35:42.994Z,-0.80
2023-01-10T15:38:20.498Z,-0.79
2023-01-10T15:40:58.501Z,-0.80
2023-01-10T15:43:26.873Z,-0.81
2023-01-10T15:45:55.503Z,-0.82
2023-01-10T15:48:43.933Z,-0.81
2023-01-10T15:51:19.582Z,-0.81
2023-01-10T15:54:00.220Z,-0.80
2023-01-10T15:56:50.000Z,-0.80
2023-01-10T16:13:28.294Z,-0.52
2023-01-10T16:15:55.739Z,-0.22
2023-01-10T16:18:22.823Z,-0.27
2023-01-10T16:20:51.195Z,-0.32
2023-01-10T16:23:19.961Z,-0.36
2023-01-10T16:25:48.857Z,-0.40
2023-01-10T16:28:16.419Z,-0.46
2023-01-10T16:30:46.228Z,-0.49
2023-01-10T16:33:18.010Z,-0.54
2023-01-10T16:35:45.030Z,-0.58
2023-01-10T16:38:13.102Z,-0.60
2023-01-10T16:40:41.352Z,-0.60
2023-01-10T16:43:17.969Z,-0.60
2023-01-10T16:45:48.812Z,-0.61
2023-01-10T16:48:16.549Z,-0.62
2023-01-10T16:50:46.977Z,-0.62
2023-01-10T16:53:15.882Z,-0.62
2023-01-10T16:55:44.867Z,-0.64
2023-01-10T16:58:13.650Z,-0.66
2023-01-10T17:00:41.626Z,-0.68
2023-01-10T17:03:11.840Z,-0.69
2023-01-10T17:05:38.868Z,-0.70
2023-01-10T17:08:06.077Z,-0.71
2023-01-10T17:10:34.690Z,-0.73
2023-01-10T17:13:03.792Z,-0.73
2023-01-10T17:15:31.615Z,-0.75
2023-01-10T17:17:59.049Z,-0.74
2023-01-10T17:20:27.523Z,-0.73
2023-01-10T17:22:54.576Z,-0.73
2023-01-10T17:25:21.616Z,-0.73
2023-01-10T17:27:48.495Z,-0.72
2023-01-10T17:30:15.713Z,-0.73
2023-01-10T17:32:42.658Z,-0.74
2023-01-10T17:35:13.802Z,-0.75
2023-01-10T17:37:42.082Z,-0.75
2023-01-10T17:40:09.841Z,-0.75
2023-01-10T17:42:36.794Z,-0.75
2023-01-10T17:45:04.756Z,-0.74
2023-01-10T17:47:32.316Z,-0.73
2023-01-10T17:49:59.263Z,-0.73
2023-01-10T17:52:26.309Z,-0.75
2023-01-10T17:54:53.303Z,-0.77
2023-01-10T17:57:20.509Z,-0.78
2023-01-10T17:59:47.350Z,-0.78
2023-01-10T18:02:17.034Z,-0.79
2023-01-10T18:04:44.425Z,-0.80
2023-01-10T18:07:12.962Z,-0.82
2023-01-10T18:09:40.047Z,-0.84
2023-01-10T18:12:10.478Z,-0.86
2023-01-10T18:14:38.161Z,-0.89
2023-01-10T18:17:10.715Z,-0.94
2023-01-10T18:19:37.686Z,-0.98
2023-01-10T18:22:23.958Z,-1.02
2023-01-10T18:24:54.487Z,-1.09
2023-01-10T18:27:22.895Z,-1.14
2023-01-10T18:29:50.417Z,-1.20
2023-01-10T18:32:18.207Z,-1.26
2023-01-10T18:34:46.571Z,-1.31
2023-01-10T18:37:14.847Z,-1.33
2023-01-10T18:39:44.867Z,-1.36
2023-01-10T18:42:11.806Z,-1.41
2023-01-10T18:44:40.802Z,-1.48
2023-01-10T18:47:07.957Z,-1.55
2023-01-10T18:49:34.899Z,-1.63
2023-01-10T18:52:01.646Z,-1.69
2023-01-10T18:54:28.788Z,-1.73
2023-01-10T18:56:55.824Z,-1.77
2023-01-10T18:59:22.798Z,-1.79
2023-01-10T19:01:49.974Z,-1.81
2023-01-10T19:04:18.093Z,-1.87
2023-01-10T19:06:45.427Z,-1.94
2023-01-10T19:09:12.626Z,-1.99
2023-01-10T19:11:39.758Z,-2.02
2023-01-10T19:14:06.917Z,-2.06
2023-01-10T19:16:34.442Z,-2.11
2023-01-10T19:19:03.775Z,-2.06
2023-01-10T19:21:31.646Z,-1.98
2023-01-10T19:24:04.228Z,-1.92
2023-01-10T19:26:31.280Z,-1.85
2023-01-10T19:28:58.415Z,-1.75
2023-01-10T19:31:28.569Z,-1.76
2023-01-10T19:33:59.168Z,-1.84
2023-01-10T19:36:26.112Z,-1.91
2023-01-10T19:38:56.129Z,-1.94
2023-01-10T19:41:27.178Z,-2.01
2023-01-10T19:43:58.417Z,-2.07
2023-01-10T19:46:25.846Z,-2.16
2023-01-10T19:48:54.718Z,-2.26
2023-01-10T19:51:21.504Z,-2.35
2023-01-10T19:53:50.402Z,-2.41
2023-01-10T19:56:22.254Z,-2.46
2023-01-10T19:58:49.528Z,-2.49
2023-01-10T20:21:34.910Z,-1.81
2023-01-10T20:24:01.710Z,-1.56
2023-01-10T20:26:31.168Z,-1.60
2023-01-10T20:29:02.189Z,-1.66
2023-01-10T20:31:29.304Z,-1.81
2023-01-10T20:33:56.167Z,-1.94
2023-01-10T20:36:23.842Z,-2.07
2023-01-10T20:38:50.998Z,-2.17
2023-01-10T20:41:28.800Z,-2.28
2023-01-10T20:43:56.253Z,-2.37
2023-01-10T20:46:27.958Z,-2.46
2023-01-10T20:48:55.978Z,-2.56
2023-01-10T20:51:25.304Z,-2.65
2023-01-10T20:53:52.176Z,-2.72
2023-01-10T20:56:20.981Z,-2.78
2023-01-10T20:58:48.369Z,-2.87
2023-01-10T21:01:24.906Z,-2.96
2023-01-10T21:03:59.992Z,-3.02
2023-01-10T21:06:26.963Z,-3.08
2023-01-10T21:08:54.077Z,-3.08
2023-01-10T21:11:21.488Z,-3.11
2023-01-10T21:13:48.506Z,-3.14
2023-01-10T21:16:18.307Z,-3.19
2023-01-10T21:18:45.436Z,-3.22
2023-01-10T21:21:14.124Z,-3.23
2023-01-10T21:23:41.992Z,-3.21
2023-01-10T21:26:10.699Z,-3.21
2023-01-10T21:28:39.054Z,-3.23
2023-01-10T21:31:06.549Z,-3.23
2023-01-10T21:33:33.775Z,-3.24
2023-01-10T21:36:00.740Z,-3.19
2023-01-10T21:38:29.506Z,-3.09
2023-01-10T21:40:57.290Z,-3.01
2023-01-10T21:43:24.208Z,-2.90
2023-01-10T21:45:51.049Z,-2.76
2023-01-10T21:48:17.996Z,-2.64
2023-01-10T21:50:45.363Z,-2.58
2023-01-10T21:53:12.314Z,-2.57
2023-01-10T21:55:39.180Z,-2.59
2023-01-10T21:58:06.085Z,-2.61
2023-01-10T22:04:00.435Z,-2.85
2023-01-10T22:06:27.359Z,-2.78
2023-01-10T22:08:54.781Z,-2.84
2023-01-10T22:11:21.724Z,-2.89
2023-01-10T22:13:54.201Z,-2.92
2023-01-10T22:16:21.947Z,-2.96
2023-01-10T22:18:49.814Z,-3.00
2023-01-10T22:21:19.129Z,-3.07
2023-01-10T22:23:46.900Z,-3.12
2023-01-10T22:26:14.926Z,-3.16
2023-01-10T22:28:43.112Z,-3.19
2023-01-10T22:31:10.424Z,-3.21
2023-01-10T22:33:37.551Z,-3.24
2023-01-10T22:36:16.169Z,-3.26
2023-01-10T22:38:47.224Z,-3.28
2023-01-10T22:41:18.649Z,-3.28
2023-01-10T22:43:46.077Z,-3.28
2023-01-10T22:46:17.868Z,-3.27
2023-01-10T22:48:45.016Z,-3.27
2023-01-10T22:51:12.919Z,-3.27
2023-01-10T22:53:40.448Z,-3.26
2023-01-10T22:56:09.949Z,-3.23
2023-01-10T22:58:37.101Z,-3.22
2023-01-10T23:01:05.205Z,-3.21
2023-01-10T23:03:32.318Z,-3.20
2023-01-10T23:05:59.186Z,-3.20
2023-01-10T23:08:26.617Z,-3.19
2023-01-10T23:10:53.739Z,-3.20
2023-01-10T23:13:21.472Z,-3.21
2023-01-10T23:15:58.303Z,-3.21
2023-01-10T23:18:25.616Z,-3.24
2023-01-10T23:20:52.509Z,-3.27
2023-01-10T23:23:22.939Z,-3.20
2023-01-10T23:26:00.797Z,-3.09
2023-01-10T23:28:33.012Z,-3.00
2023-01-10T23:30:59.965Z,-2.89
2023-01-10T23:33:26.805Z,-2.79
2023-01-10T23:35:53.827Z,-2.72
2023-01-10T23:38:20.649Z,-2.68
2023-01-10T23:40:50.702Z,-2.66
2023-01-10T23:43:17.839Z,-2.65
2023-01-10T23:45:44.892Z,-2.71
2023-01-10T23:48:12.284Z,-2.76
2023-01-10T23:50:39.220Z,-2.81
2023-01-10T23:53:06.557Z,-2.87
2023-01-10T23:55:37.815Z,-2.92
2023-01-10T23:58:04.830Z,-2.97
